createdAt,value
2022-09-04T00:02:34.629Z,101010.28
2022-09-04T00:05:07.444Z,101012.03
2022-09-04T00:07:57.338Z,101005.00
2022-09-04T00:10:37.271Z,101011.22
2022-09-04T00:13:41.987Z,101003.44
2022-09-04T00:16:21.479Z,101013.78
2022-09-04T00:19:03.390Z,101017.38
2022-09-04T00:21:50.430Z,101024.34
2022-09-04T00:24:25.175Z,101020.91
2022-09-04T00:27:01.611Z,101024.34
2022-09-04T00:29:44.424Z,101021.00
2022-09-04T00:32:30.201Z,101022.78
2022-09-04T00:35:07.491Z,101021.00
2022-09-04T00:37:43.772Z,101017.41
2022-09-04T00:40:19.602Z,101015.69
2022-09-04T00:43:08.635Z,101029.59
2022-09-04T00:46:14.522Z,101023.75
2022-09-04T00:49:03.927Z,101026.47
2022-09-04T00:51:53.313Z,101026.56
2022-09-04T00:54:41.595Z,101027.34
2022-09-04T00:57:47.199Z,101034.53
2022-09-04T01:00:20.526Z,101033.81
2022-09-04T01:03:07.487Z,101031.22
2022-09-04T01:05:55.969Z,101029.41
2022-09-04T01:08:50.334Z,101040.72
2022-09-04T01:11:29.608Z,101031.22
2022-09-04T01:14:10.899Z,101039.88
2022-09-04T01:16:42.079Z,101036.38
2022-09-04T01:19:37.998Z,101043.25
2022-09-04T01:22:26.762Z,101039.91
2022-09-04T01:25:05.724Z,101049.56
2022-09-04T01:28:07.148Z,101050.47
2022-09-04T01:30:59.614Z,101041.78
2022-09-04T01:33:36.173Z,101050.53
2022-09-04T01:36:38.540Z,101053.19
2022-09-04T01:39:06.283Z,101051.41
2022-09-04T01:41:45.671Z,101062.72
2022-09-04T01:44:14.207Z,101059.31
2022-09-04T01:47:03.206Z,101064.59
2022-09-04T01:49:39.322Z,101065.63
2022-09-04T01:52:36.677Z,101070.00
2022-09-04T01:55:38.987Z,101057.03
2022-09-04T01:58:19.068Z,101069.31
2022-09-04T02:01:14.139Z,101063.25
2022-09-04T02:04:12.588Z,101063.25
2022-09-04T02:07:33.843Z,101062.44
2022-09-04T02:10:29.391Z,101060.59
2022-09-04T02:13:29.438Z,101056.25
2022-09-04T02:16:20.595Z,101054.50
2022-09-04T02:19:03.076Z,101050.97
2022-09-04T02:21:44.706Z,101048.44
2022-09-04T02:24:41.409Z,101053.50
2022-09-04T02:27:26.607Z,101053.47
2022-09-04T02:30:01.502Z,101056.88
2022-09-04T02:32:45.430Z,101053.44
2022-09-04T02:35:13.034Z,101063.16
2022-09-04T02:37:49.534Z,101056.25
2022-09-04T02:40:29.069Z,101049.28
2022-09-04T02:43:16.102Z,101057.16
2022-09-04T02:46:05.713Z,101057.25
2022-09-04T02:48:41.788Z,101050.41
2022-09-04T02:51:45.666Z,101050.47
2022-09-04T02:54:22.151Z,101045.41
2022-09-04T02:57:17.633Z,101048.94
2022-09-04T03:00:15.078Z,101044.59
2022-09-04T03:02:55.267Z,101042.81
2022-09-04T03:05:54.642Z,101049.69
2022-09-04T03:08:42.846Z,101047.09
2022-09-04T03:11:31.067Z,101046.28
2022-09-04T03:14:28.591Z,101049.72
2022-09-04T03:17:21.258Z,101055.81
2022-09-04T03:20:00.299Z,101056.69
2022-09-04T03:22:39.677Z,101066.25
2022-09-04T03:25:30.844Z,101064.53
2022-09-04T03:27:58.749Z,101057.63
2022-09-04T03:30:27.608Z,101062.84
2022-09-04T03:33:07.568Z,101060.22
2022-09-04T03:36:00.532Z,101059.38
2022-09-04T03:38:47.693Z,101075.06
2022-09-04T03:41:24.201Z,101064.56
2022-09-04T03:43:54.829Z,101072.38
2022-09-04T03:47:16.582Z,101069.06
2022-09-04T03:49:52.803Z,101078.69
2022-09-04T03:52:38.930Z,101083.78
2022-09-04T03:55:12.313Z,101078.63
2022-09-04T03:58:01.158Z,101075.28
2022-09-04T04:00:50.790Z,101080.44
2022-09-04T04:03:36.796Z,101081.19
2022-09-04T04:06:27.150Z,101075.06
2022-09-04T04:09:22.540Z,101087.25
2022-09-04T04:12:14.420Z,101084.63
2022-09-04T04:14:59.381Z,101090.59
2022-09-04T04:17:50.357Z,101087.88
2022-09-04T04:21:00.049Z,101086.03
2022-09-04T04:23:57.600Z,101093.78
2022-09-04T04:26:54.919Z,101096.28
2022-09-04T04:29:51.863Z,101097.09
2022-09-04T04:32:59.416Z,101091.81
2022-09-04T04:35:37.607Z,101102.06
2022-09-04T04:38:32.751Z,101102.78
2022-09-04T04:41:30.177Z,101105.31
2022-09-04T04:44:43.734Z,101096.56
2022-09-04T04:47:42.161Z,101100.78
2022-09-04T04:50:28.947Z,101113.69
2022-09-04T04:53:45.881Z,101114.56
2022-09-04T04:56:51.135Z,101121.38
2022-09-04T04:59:40.094Z,101120.09
2022-09-04T05:02:35.627Z,101129.34
2022-09-04T05:05:17.600Z,101120.34
2022-09-04T05:08:08.574Z,101121.09
2022-09-04T05:10:43.566Z,101131.44
2022-09-04T05:13:23.250Z,101131.06
2022-09-04T05:16:21.817Z,101125.72
2022-09-04T05:19:18.349Z,101128.72
2022-09-04T05:22:16.546Z,101134.94
2022-09-04T05:25:13.575Z,101126.25
2022-09-04T05:27:53.504Z,101128.75
2022-09-04T05:30:51.007Z,101126.63
2022-09-04T05:33:51.092Z,101131.38
2022-09-04T05:36:29.703Z,101137.44
2022-09-04T05:39:10.716Z,101137.47
2022-09-04T05:42:06.375Z,101134.69
2022-09-04T05:45:04.232Z,101142.19
2022-09-04T05:47:52.304Z,101143.63
2022-09-04T05:50:26.381Z,101152.94
2022-09-04T05:53:18.873Z,101143.09
2022-09-04T05:55:58.882Z,101148.00
2022-09-04T05:59:09.574Z,101148.50
2022-09-04T06:02:06.169Z,101144.66
2022-09-04T06:05:10.522Z,101148.50
2022-09-04T06:08:28.340Z,101156.81
2022-09-04T06:11:24.258Z,101154.81
2022-09-04T06:14:19.962Z,101153.13
2022-09-04T06:16:53.230Z,101157.75
2022-09-04T06:19:23.481Z,101163.16
2022-09-04T06:22:03.365Z,101162.41
2022-09-04T06:24:56.940Z,101167.56
2022-09-04T06:27:35.453Z,101163.41
2022-09-04T06:30:09.027Z,101170.66
2022-09-04T06:32:55.317Z,101175.28
2022-09-04T06:35:54.093Z,101178.59
2022-09-04T06:38:45.423Z,101178.38
2022-09-04T06:41:40.501Z,101178.75
2022-09-04T06:44:29.511Z,101181.84
2022-09-04T06:47:20.491Z,101166.81
2022-09-04T06:50:14.652Z,101175.34
2022-09-04T06:53:18.995Z,101181.25
2022-09-04T06:56:05.746Z,101181.94
2022-09-04T06:59:08.956Z,101179.72
2022-09-04T07:02:13.715Z,101178.22
2022-09-04T07:05:16.435Z,101181.97
2022-09-04T07:08:02.591Z,101192.69
2022-09-04T07:10:45.874Z,101190.22
2022-09-04T07:13:37.757Z,101189.50
2022-09-04T07:16:31.179Z,101195.69
2022-09-04T07:19:32.927Z,101193.25
2022-09-04T07:22:22.098Z,101193.59
2022-09-04T07:25:23.324Z,101195.94
2022-09-04T07:28:06.413Z,101201.00
2022-09-04T07:30:45.553Z,101197.16
2022-09-04T07:33:46.038Z,101200.16
2022-09-04T07:36:43.586Z,101202.78
2022-09-04T07:39:20.511Z,101199.53
2022-09-04T07:42:19.010Z,101203.91
2022-09-04T07:45:22.618Z,101208.09
2022-09-04T07:48:04.016Z,101210.56
2022-09-04T07:50:58.166Z,101217.38
2022-09-04T07:53:40.330Z,101222.25
2022-09-04T07:56:35.531Z,101215.16
2022-09-04T07:59:40.537Z,101216.50
2022-09-04T08:02:26.575Z,101218.75
2022-09-04T08:04:58.703Z,101217.19
2022-09-04T08:08:15.825Z,101217.09
2022-09-04T08:10:59.361Z,101218.41
2022-09-04T08:13:51.893Z,101220.75
2022-09-04T08:16:31.263Z,101215.38
2022-09-04T08:19:10.522Z,101221.88
2022-09-04T08:21:47.103Z,101224.84
2022-09-04T08:24:52.911Z,101219.25
2022-09-04T08:28:00.097Z,101212.75
2022-09-04T08:30:39.210Z,101220.59
2022-09-04T08:33:40.847Z,101216.66
2022-09-04T08:36:37.544Z,101219.72
2022-09-04T08:39:23.559Z,101227.81
2022-09-04T08:42:23.471Z,101221.34
2022-09-04T08:45:22.258Z,101219.13
2022-09-04T08:48:11.356Z,101230.28
2022-09-04T08:51:34.306Z,101227.16
2022-09-04T08:54:16.857Z,101223.94
2022-09-04T08:56:53.804Z,101230.44
2022-09-04T08:59:42.526Z,101219.75
2022-09-04T09:02:37.937Z,101220.88
2022-09-04T09:05:25.857Z,101216.41
2022-09-04T09:08:24.997Z,101211.50
2022-09-04T09:11:13.605Z,101214.03
2022-09-04T09:14:19.323Z,101214.78
2022-09-04T09:17:12.573Z,101213.97
2022-09-04T09:19:43.447Z,101215.28
2022-09-04T09:22:36.335Z,101216.94
2022-09-04T09:25:21.143Z,101212.03
2022-09-04T09:28:21.210Z,101206.38
2022-09-04T09:30:58.950Z,101207.28
2022-09-04T09:33:32.517Z,101211.16
2022-09-04T09:36:06.564Z,101208.13
2022-09-04T09:38:53.197Z,101201.97
2022-09-04T09:41:51.761Z,101201.34
2022-09-04T09:44:46.877Z,101198.66
2022-09-04T09:47:42.122Z,101205.88
2022-09-04T09:50:12.607Z,101204.00
2022-09-04T09:53:17.070Z,101200.59
2022-09-04T09:55:50.844Z,101189.03
2022-09-04T09:58:48.669Z,101202.94
2022-09-04T10:01:25.204Z,101203.28
2022-09-04T10:04:22.068Z,101202.00
2022-09-04T10:07:21.274Z,101207.91
2022-09-04T10:10:12.622Z,101202.06
2022-09-04T10:12:55.339Z,101200.47
2022-09-04T10:16:01.241Z,101195.75
2022-09-04T10:19:20.120Z,101201.16
2022-09-04T10:21:51.469Z,101186.75
2022-09-04T10:24:38.693Z,101181.19
2022-09-04T10:27:09.550Z,101183.44
2022-09-04T10:29:53.924Z,101178.03
2022-09-04T10:32:31.846Z,101182.19
2022-09-04T10:35:22.335Z,101181.59
2022-09-04T10:38:19.140Z,101176.19
2022-09-04T10:41:22.766Z,101172.44
2022-09-04T10:44:08.773Z,101166.28
2022-09-04T10:47:02.711Z,101177.25
2022-09-04T10:49:55.407Z,101173.00
2022-09-04T10:52:48.564Z,101174.09
2022-09-04T10:55:59.063Z,101178.69
2022-09-04T10:58:40.897Z,101175.34
2022-09-04T11:01:27.854Z,101181.06
2022-09-04T11:04:14.004Z,101183.34
2022-09-04T11:07:01.253Z,101185.59
2022-09-04T11:09:56.446Z,101186.06
2022-09-04T11:12:45.897Z,101188.25
2022-09-04T11:15:52.673Z,101188.72
2022-09-04T11:18:34.180Z,101184.38
2022-09-04T11:21:07.984Z,101170.25
2022-09-04T11:24:17.316Z,101178.78
2022-09-04T11:27:07.969Z,101175.59
2022-09-04T11:29:56.708Z,101173.88
2022-09-04T11:33:11.944Z,101180.19
2022-09-04T11:36:07.253Z,101178.63
2022-09-04T11:38:53.724Z,101181.41
2022-09-04T11:42:20.457Z,101175.56
2022-09-04T11:45:21.301Z,101169.88
2022-09-04T11:48:15.920Z,101170.59
2022-09-04T11:51:02.806Z,101166.13
2022-09-04T11:54:21.022Z,101168.16
2022-09-04T11:57:22.672Z,101161.94
2022-09-04T11:59:59.508Z,101170.00
2022-09-04T12:03:04.137Z,101166.19
2022-09-04T12:06:05.122Z,101162.44
2022-09-04T12:08:57.059Z,101162.56
2022-09-04T12:11:48.860Z,101162.38
2022-09-04T12:14:36.729Z,101154.38
2022-09-04T12:17:31.981Z,101152.50
2022-09-04T12:20:31.036Z,101158.84
2022-09-04T12:23:19.047Z,101152.44
2022-09-04T12:25:57.692Z,101150.22
2022-09-04T12:28:57.680Z,101155.41
2022-09-04T12:31:51.407Z,101146.28
2022-09-04T12:34:55.159Z,101143.97
2022-09-04T12:37:54.115Z,101147.31
2022-09-04T12:40:23.024Z,101150.34
2022-09-04T12:43:16.640Z,101149.13
2022-09-04T12:46:14.449Z,101145.56
2022-09-04T12:48:53.902Z,101149.41
2022-09-04T12:51:26.581Z,101147.75
2022-09-04T12:54:25.005Z,101154.63
2022-09-04T12:57:11.711Z,101148.72
2022-09-04T13:00:04.812Z,101148.28
2022-09-04T13:02:57.437Z,101165.00
2022-09-04T13:05:31.948Z,101148.13
2022-09-04T13:08:06.893Z,101152.22
2022-09-04T13:10:52.543Z,101160.00
2022-09-04T13:13:48.001Z,101155.31
2022-09-04T13:16:36.937Z,101149.19
2022-09-04T13:19:22.833Z,101151.84
2022-09-04T13:22:09.217Z,101154.50
2022-09-04T13:25:25.658Z,101161.09
2022-09-04T13:27:57.525Z,101156.69
2022-09-04T13:30:27.618Z,101156.97
2022-09-04T13:33:26.260Z,101151.28
2022-09-04T13:36:11.233Z,101155.44
2022-09-04T13:38:45.282Z,101151.84
2022-09-04T13:41:19.085Z,101152.50
2022-09-04T13:44:08.009Z,101162.22
2022-09-04T13:46:46.779Z,101153.44
2022-09-04T13:49:21.350Z,101161.31
2022-09-04T13:52:00.438Z,101161.84
2022-09-04T13:54:42.554Z,101162.09
2022-09-04T13:57:27.996Z,101167.66
2022-09-04T14:00:07.340Z,101175.56
2022-09-04T14:02:36.998Z,101165.78
2022-09-04T14:05:16.681Z,101159.84
2022-09-04T14:07:49.305Z,101161.72
2022-09-04T14:10:41.351Z,101160.72
2022-09-04T14:13:55.598Z,101154.91
2022-09-04T14:16:24.055Z,101161.00
2022-09-04T14:19:20.675Z,101164.84
2022-09-04T14:21:55.359Z,101154.25
2022-09-04T14:24:42.092Z,101155.78
2022-09-04T14:27:16.002Z,101153.59
2022-09-04T14:30:13.604Z,101163.31
2022-09-04T14:33:06.246Z,101157.91
2022-09-04T14:35:49.341Z,101152.22
2022-09-04T14:38:41.317Z,101150.47
2022-09-04T14:41:30.450Z,101158.91
2022-09-04T14:44:16.603Z,101160.25
2022-09-04T14:47:17.253Z,101152.59
2022-09-04T14:49:48.506Z,101163.00
2022-09-04T14:52:21.710Z,101159.19
2022-09-04T14:54:55.691Z,101162.66
2022-09-04T14:57:41.732Z,101165.72
2022-09-04T15:00:20.203Z,101161.81
2022-09-04T15:02:51.203Z,101157.47
2022-09-04T15:05:27.709Z,101161.19
2022-09-04T15:08:03.818Z,101166.09
2022-09-04T15:10:50.025Z,101157.78
2022-09-04T15:13:35.358Z,101158.63
2022-09-04T15:16:19.431Z,101163.75
2022-09-04T15:19:05.905Z,101165.56
2022-09-04T15:21:58.932Z,101161.63
2022-09-04T15:24:32.594Z,101157.78
2022-09-04T15:27:23.680Z,101157.34
2022-09-04T15:29:54.424Z,101158.97
2022-09-04T15:32:28.548Z,101159.31
2022-09-04T15:35:14.301Z,101160.13
2022-09-04T15:37:48.732Z,101161.66
2022-09-04T15:40:31.974Z,101152.72
2022-09-04T15:43:12.261Z,101161.25
2022-09-04T15:45:54.083Z,101154.19
2022-09-04T15:48:26.977Z,101154.44
2022-09-04T15:51:04.466Z,101157.38
2022-09-04T15:53:38.838Z,101159.91
2022-09-04T15:56:34.951Z,101158.06
2022-09-04T15:59:08.932Z,101162.03
2022-09-04T16:01:40.180Z,101169.13
2022-09-04T16:04:18.355Z,101171.16
2022-09-04T16:07:28.874Z,101171.50
2022-09-04T16:10:02.936Z,101169.63
2022-09-04T16:12:48.660Z,101177.22
2022-09-04T16:15:44.925Z,101186.88
2022-09-04T16:18:40.264Z,101174.31
2022-09-04T16:21:41.050Z,101184.41
2022-09-04T16:24:25.731Z,101180.53
2022-09-04T16:26:55.840Z,101183.38
2022-09-04T16:29:36.755Z,101190.56
2022-09-04T16:32:09.767Z,101188.28
2022-09-04T16:34:55.980Z,101182.78
2022-09-04T16:37:32.617Z,101192.34
2022-09-04T16:40:48.740Z,101196.03
2022-09-04T16:43:28.849Z,101190.56
2022-09-04T16:46:28.150Z,101194.56
2022-09-04T16:49:07.786Z,101199.19
2022-09-04T16:51:43.624Z,101209.47
2022-09-04T16:54:37.310Z,101208.28
2022-09-04T16:57:15.835Z,101210.88
2022-09-04T16:59:57.245Z,101207.00
2022-09-04T17:02:36.132Z,101210.00
2022-09-04T17:05:28.390Z,101214.69
2022-09-04T17:08:12.189Z,101221.09
2022-09-04T17:11:05.529Z,101221.66
2022-09-04T17:13:50.096Z,101236.13
2022-09-04T17:16:38.212Z,101238.44
2022-09-04T17:19:14.212Z,101237.66
2022-09-04T17:28:55.846Z,101243.44
2022-09-04T17:28:57.199Z,101247.34
2022-09-04T17:29:09.738Z,101249.84
2022-09-04T17:31:43.940Z,101243.69
2022-09-04T17:40:32.144Z,101248.13
2022-09-04T17:40:49.125Z,101261.63
2022-09-04T17:41:40.705Z,101261.72
2022-09-04T17:44:05.885Z,101273.88
2022-09-04T17:46:44.811Z,101276.06
2022-09-04T17:49:34.368Z,101284.59
2022-09-04T17:52:08.922Z,101274.16
2022-09-04T17:54:49.063Z,101281.16
2022-09-04T17:57:28.581Z,101288.84
2022-09-04T18:00:07.810Z,101290.19
2022-09-04T18:02:56.278Z,101297.91
2022-09-04T18:05:49.162Z,101305.34
2022-09-04T18:08:55.937Z,101300.34
2022-09-04T18:11:28.952Z,101309.34
2022-09-04T18:14:04.225Z,101306.50
2022-09-04T18:16:47.665Z,101312.22
2022-09-04T18:19:46.898Z,101323.25
2022-09-04T18:22:44.875Z,101315.69
2022-09-04T18:25:24.803Z,101317.31
2022-09-04T18:28:17.893Z,101322.63
2022-09-04T18:37:12.507Z,101318.59
2022-09-04T18:37:18.588Z,101314.59
2022-09-04T18:37:44.186Z,101328.25
2022-09-04T18:40:50.414Z,101322.25
2022-09-04T18:50:23.675Z,101328.88
2022-09-04T18:50:40.776Z,101329.63
2022-09-04T18:50:51.228Z,101326.53
2022-09-04T18:52:23.198Z,101337.97
2022-09-04T18:54:58.938Z,101326.53
2022-09-04T18:57:49.005Z,101342.19
2022-09-04T19:00:39.907Z,101344.22
2022-09-04T19:03:23.036Z,101342.56
2022-09-04T19:05:56.747Z,101346.19
2022-09-04T19:08:34.074Z,101347.31
2022-09-04T19:11:29.403Z,101347.50
2022-09-04T19:14:15.598Z,101343.25
2022-09-04T19:16:52.569Z,101345.84
2022-09-04T19:19:45.578Z,101347.69
2022-09-04T19:22:36.155Z,101346.50
2022-09-04T19:25:13.436Z,101350.75
2022-09-04T19:28:21.888Z,101357.00
2022-09-04T19:30:53.749Z,101353.44
2022-09-04T19:33:31.629Z,101356.66
2022-09-04T19:36:14.071Z,101365.50
2022-09-04T19:44:44.504Z,101362.31
2022-09-04T19:46:03.556Z,101373.97
2022-09-04T19:46:26.495Z,101374.31
2022-09-04T19:48:11.606Z,101370.53
2022-09-04T19:53:24.398Z,101385.69
2022-09-04T19:53:49.260Z,101378.81
2022-09-04T19:56:28.592Z,101385.50
2022-09-04T19:59:11.608Z,101383.09
2022-09-04T20:01:52.012Z,101386.22
2022-09-04T20:04:47.512Z,101381.91
2022-09-04T20:07:42.694Z,101392.38
2022-09-04T20:10:22.896Z,101388.94
2022-09-04T20:13:11.963Z,101395.69
2022-09-04T20:15:50.942Z,101403.03
2022-09-04T20:18:28.239Z,101405.13
2022-09-04T20:21:01.258Z,101407.84
2022-09-04T20:23:42.615Z,101407.28
2022-09-04T20:26:25.552Z,101409.56
2022-09-04T20:29:10.827Z,101415.63
2022-09-04T20:32:27.439Z,101416.56
2022-09-04T20:35:20.500Z,101422.28
2022-09-04T20:38:22.987Z,101424.56
2022-09-04T20:41:22.478Z,101426.28
2022-09-04T20:44:19.638Z,101429.03
2022-09-04T20:52:45.880Z,101429.97
2022-09-04T20:52:57.622Z,101424.28
2022-09-04T20:53:07.449Z,101432.50
2022-09-04T20:56:10.752Z,101428.94
2022-09-04T21:03:07.522Z,101426.84
2022-09-04T21:03:18.412Z,101436.69
2022-09-04T21:05:42.512Z,101458.16
2022-09-04T21:08:27.255Z,101454.66
2022-09-04T21:11:14.878Z,101448.75
2022-09-04T21:14:06.848Z,101455.00
2022-09-04T21:16:49.773Z,101458.16
2022-09-04T21:19:47.699Z,101458.78
2022-09-04T21:22:37.015Z,101462.72
2022-09-04T21:25:04.877Z,101471.31
2022-09-04T21:27:32.483Z,101470.50
2022-09-04T21:30:14.760Z,101471.19
2022-09-04T21:32:53.885Z,101471.13
2022-09-04T21:35:37.388Z,101485.72
2022-09-04T21:38:31.068Z,101484.09
2022-09-04T21:41:16.551Z,101489.28
2022-09-04T21:43:53.169Z,101489.19
2022-09-04T21:46:33.010Z,101492.53
2022-09-04T21:49:26.783Z,101500.91
2022-09-04T21:52:32.001Z,101493.22
2022-09-04T21:57:13.513Z,101495.75
2022-09-04T22:02:36.512Z,101504.09
2022-09-04T22:02:43.808Z,101502.50
2022-09-04T22:04:38.474Z,101506.69
2022-09-04T22:11:00.944Z,101498.66
2022-09-04T22:13:31.462Z,101512.09
2022-09-04T22:13:42.494Z,101512.22
2022-09-04T22:16:13.506Z,101514.53
2022-09-04T22:19:16.463Z,101511.28
2022-09-04T22:22:03.707Z,101504.19
2022-09-04T22:24:41.566Z,101498.72
2022-09-04T22:27:30.570Z,101506.22
2022-09-04T22:30:06.044Z,101509.00
2022-09-04T22:33:10.741Z,101506.09
2022-09-04T22:36:16.875Z,101506.28
2022-09-04T22:39:30.959Z,101510.66
2022-09-04T22:42:05.535Z,101512.81
2022-09-04T22:44:35.997Z,101516.66
2022-09-04T22:47:27.347Z,101512.47
2022-09-04T22:50:29.040Z,101520.81
2022-09-04T22:53:41.418Z,101512.94
2022-09-04T22:56:30.383Z,101515.34
2022-09-04T22:59:35.766Z,101521.50
2022-09-04T23:02:14.104Z,101523.25
2022-09-04T23:05:06.778Z,101523.63
2022-09-04T23:13:54.483Z,101524.16
2022-09-04T23:14:00.193Z,101520.78
2022-09-04T23:15:08.077Z,101523.53
2022-09-04T23:20:22.456Z,101515.31
2022-09-04T23:26:35.344Z,101525.22
2022-09-04T23:26:49.395Z,101520.03
2022-09-04T23:27:40.081Z,101525.53
2022-09-04T23:30:25.815Z,101516.81
2022-09-04T23:33:27.846Z,101516.97
2022-09-04T23:37:07.207Z,101520.41
2022-09-04T23:40:31.905Z,101515.84
2022-09-04T23:43:29.632Z,101520.53
2022-09-04T23:46:35.951Z,101515.22
2022-09-04T23:49:49.558Z,101522.50
2022-09-04T23:52:48.497Z,101526.25
2022-09-04T23:55:49.911Z,101522.22
2022-09-04T23:59:14.254Z,101526.59
